OIAI  Shahid Asyaee  Airport

Iran

Add Bookmark
ICAO OIAI
Type Airport
Status Operational
Latitude
32° 0' 8" N
32.002399
Longitude
49° 16' 13" E
49.270401
Local (DST + 5) UTC (GMT + 4)
Sep 4, 2015 08:14 Sep 4, 2015 03:44
Sunrise-Sunset Local UTC
Begin Civil Twilight 06:24 01:54
Sunrise 06:48 02:18
Sunset 07:35 15:05
End Civil Twilight 07:59 15:29
VFR
VFR
MVFR
MVFR
IFR
IFR
LIFR
LIFR
Unknown
Unavailable

Current Weather

METAR Observed VFR
OIAI 031654Z 33002KT CAVOK 38/07 Q1001 Thu, Sep 3, 2015 @ 16:54 UTC
(10 Hours, 50 Minutes ago)
Visual Flight Rules
Wind Visibility Conditions
330° at 2 knots (4 kph) 10 km or more
  • No significant weather
Temperatures Readings Precipitation
Current Temp
38°C
100°F
Dewpoint
7°C
45°F
Humidity 15%
Altimeter 29.56" Hg
Sea Level Pressure 1,001 mb
Field Elevation
372 m
1,220 ft
None Recorded

Additional weather within a 92.6km radius of OIAI

Map ICAO Location
OIAW 88.2km S/SW (213°)
VFR
VFR
MVFR
MVFR
IFR
IFR
LIFR
LIFR
Unknown
Unavailable
-
-

CheckWX.com is intended as a tool to help pilots better visualize weather data. It is not intended as a substitute for an official weather briefing obtained from a Flight Service Station. CheckWX.com does not meet the FAA requirements for an official pre-flight weather briefing. Therefore, it's important that pilots still call and obtain an official FSS pre-flight weather briefing.

© 2007-2015 CheckWX.com
03:44:47 UTC